createdAt,value
2023-04-12T00:05:15.599Z,16.2
2023-04-12T00:11:07.093Z,16.1
2023-04-12T00:16:58.955Z,16
2023-04-12T00:22:35.005Z,16.1
2023-04-12T00:28:26.276Z,16.2
2023-04-12T00:34:17.981Z,16.3
2023-04-12T00:40:09.626Z,16.3
2023-04-12T00:45:45.585Z,16.2
2023-04-12T00:51:06.164Z,16.1
2023-04-12T00:56:42.393Z,15.9
2023-04-12T01:02:34.040Z,16
2023-04-12T01:08:11.253Z,16.2
2023-04-12T01:14:02.444Z,16.2
2023-04-12T01:19:38.606Z,16.1
2023-04-12T01:25:29.872Z,16.1
2023-04-12T01:31:05.333Z,16
2023-04-12T01:36:26.347Z,15.9
2023-04-12T01:42:02.565Z,15.8
2023-04-12T01:47:38.330Z,16
2023-04-12T01:53:14.849Z,16.1
2023-04-12T01:58:52.927Z,16.2
2023-04-12T02:04:31.167Z,16.1
2023-04-12T02:10:07.332Z,16.1
2023-04-12T02:15:43.667Z,16
2023-04-12T02:21:19.384Z,15.9
2023-04-12T02:26:54.950Z,15.9
2023-04-12T02:32:00.037Z,16.1
2023-04-12T02:37:35.716Z,16.1
2023-04-12T02:42:56.947Z,16.1
2023-04-12T02:48:18.491Z,16.1
2023-04-12T02:53:55.282Z,15.9
2023-04-12T02:59:31.453Z,15.9
2023-04-12T03:05:09.735Z,15.9
2023-04-12T03:10:45.194Z,15.9
2023-04-12T03:16:21.794Z,16.1
2023-04-12T03:21:58.373Z,16.1
2023-04-12T03:27:34.288Z,16.1
2023-04-12T03:33:10.198Z,16.1
2023-04-12T03:38:46.774Z,16
2023-04-12T03:44:25.565Z,15.9
2023-04-12T03:50:14.052Z,16.1
2023-04-12T03:55:50.638Z,16.2
2023-04-12T04:01:27.147Z,16.2
2023-04-12T04:07:06.314Z,16.1
2023-04-12T04:12:42.847Z,16.1
2023-04-12T04:18:19.332Z,16.1
2023-04-12T04:23:39.584Z,16.3
2023-04-12T04:29:15.776Z,16.3
2023-04-12T04:34:52.289Z,16.2
2023-04-12T04:40:28.053Z,16.1
2023-04-12T04:46:04.199Z,16
2023-04-12T04:51:40.404Z,16.1
2023-04-12T04:57:19.651Z,16.2
2023-04-12T05:02:56.435Z,16.1
2023-04-12T05:08:34.874Z,16.1
2023-04-12T05:14:41.614Z,16
2023-04-12T05:20:24.670Z,15.9
2023-04-12T05:26:00.855Z,15.8
2023-04-12T05:31:36.221Z,15.8
2023-04-12T05:37:12.091Z,15.9
2023-04-12T05:42:47.744Z,16.1
2023-04-12T05:48:24.507Z,16.1
2023-04-12T05:54:10.048Z,16.1
2023-04-12T05:59:46.585Z,15.9
2023-04-12T06:05:39.719Z,15.9
2023-04-12T06:11:15.469Z,15.7
2023-04-12T06:16:51.652Z,15.8
2023-04-12T06:22:27.405Z,16
2023-04-12T06:28:03.819Z,16.1
2023-04-12T06:33:39.987Z,16.1
2023-04-12T06:39:16.424Z,16
2023-04-12T06:44:52.248Z,15.9
2023-04-12T06:50:29.159Z,15.8
2023-04-12T06:55:50.821Z,15.8
2023-04-12T07:01:12.958Z,16
2023-04-12T07:06:59.081Z,16.1
2023-04-12T07:12:15.513Z,16.1
2023-04-12T07:17:37.184Z,15.9
2023-04-12T07:23:13.401Z,15.9
2023-04-12T07:28:34.113Z,15.9
2023-04-12T07:34:42.572Z,15.8
2023-04-12T07:40:04.656Z,15.8
2023-04-12T07:45:44.827Z,15.9
2023-04-12T07:51:22.246Z,15.9
2023-04-12T07:56:58.215Z,15.9
2023-04-12T08:02:39.945Z,15.8
2023-04-12T08:08:17.865Z,15.8
2023-04-12T08:13:54.045Z,15.7
2023-04-12T08:19:30.809Z,15.6
2023-04-12T08:25:07.741Z,15.8
2023-04-12T08:30:43.766Z,15.8
2023-04-12T08:36:22.317Z,15.8
2023-04-12T08:42:29.632Z,15.8
2023-04-12T08:48:21.063Z,15.7
2023-04-12T08:54:13.083Z,15.6
2023-04-12T09:00:05.431Z,15.6
2023-04-12T09:06:01.410Z,15.7
2023-04-12T09:11:21.897Z,15.8
2023-04-12T09:17:17.112Z,15.8
2023-04-12T09:22:53.454Z,15.6
2023-04-12T09:28:44.774Z,15.6
2023-04-12T09:34:37.534Z,15.6
2023-04-12T09:40:14.359Z,15.6
2023-04-12T09:46:23.984Z,15.7
2023-04-12T09:52:16.811Z,15.8
2023-04-12T09:58:09.170Z,15.8
2023-04-12T10:04:05.632Z,15.6
2023-04-12T10:10:00.738Z,15.6
2023-04-12T10:15:40.429Z,15.4
2023-04-12T10:21:35.439Z,15.6
2023-04-12T10:27:28.087Z,15.7
2023-04-12T10:33:20.306Z,15.7
2023-04-12T10:39:13.085Z,15.6
2023-04-12T10:45:04.861Z,15.6
2023-04-12T10:50:56.592Z,15.5
2023-04-12T10:56:49.069Z,15.4
2023-04-12T11:02:35.927Z,15.6
2023-04-12T11:08:41.083Z,15.8
2023-04-12T11:14:33.225Z,15.7
2023-04-12T11:20:26.736Z,15.6
2023-04-12T11:26:03.317Z,15.6
2023-04-12T11:32:07.598Z,15.6
2023-04-12T11:38:00.443Z,15.6
2023-04-12T11:43:53.930Z,15.8
2023-04-12T11:49:59.570Z,15.8
2023-04-12T11:55:49.829Z,15.9
2023-04-12T12:01:41.757Z,15.8
2023-04-12T12:07:55.651Z,15.8
2023-04-12T12:14:10.289Z,15.7
2023-04-12T12:20:02.746Z,15.7
2023-04-12T12:26:03.027Z,15.9
2023-04-12T12:32:03.130Z,15.9
2023-04-12T12:38:12.513Z,15.9
2023-04-12T12:44:08.708Z,15.9
2023-04-12T12:50:25.470Z,15.8
2023-04-12T12:56:19.577Z,15.8
2023-04-12T13:02:27.988Z,15.8
2023-04-12T13:08:22.702Z,16
2023-04-12T13:14:15.467Z,16.1
2023-04-12T13:20:20.525Z,16.1
2023-04-12T13:26:14.210Z,16.1
2023-04-12T13:31:51.171Z,16.1
2023-04-12T13:37:46.334Z,16.1
2023-04-12T13:43:40.302Z,16
2023-04-12T13:49:33.522Z,16
2023-04-12T13:55:25.662Z,16.2
2023-04-12T14:01:18.235Z,16.3
2023-04-12T14:07:13.023Z,16.4
2023-04-12T14:13:05.296Z,16.4
2023-04-12T14:18:43.078Z,16.3
2023-04-12T14:24:35.482Z,16.3
2023-04-12T14:30:27.366Z,16.5
2023-04-12T14:36:21.811Z,16.5
2023-04-12T14:42:14.824Z,16.5
2023-04-12T14:48:08.250Z,16.4
2023-04-12T14:54:00.129Z,16.4
2023-04-12T14:59:59.244Z,16.3
2023-04-12T15:05:54.762Z,16.3
2023-04-12T15:11:46.332Z,16.4
2023-04-12T15:17:40.956Z,16.5
2023-04-12T15:23:42.656Z,16.6
2023-04-12T15:29:35.626Z,16.5
2023-04-12T15:35:28.365Z,16.5
2023-04-12T15:41:08.590Z,16.4
2023-04-12T15:47:10.168Z,16.6
2023-04-12T15:53:02.120Z,16.6
2023-04-12T15:58:53.983Z,16.6
2023-04-12T16:04:51.184Z,16.6
2023-04-12T16:10:27.119Z,16.5
2023-04-12T16:16:18.313Z,16.4
2023-04-12T16:22:10.846Z,16.4
2023-04-12T16:27:46.310Z,16.4
2023-04-12T16:33:40.554Z,16.6
2023-04-12T16:39:18.262Z,16.6
2023-04-12T16:45:09.811Z,16.6
2023-04-12T16:51:02.529Z,16.6
2023-04-12T16:56:56.640Z,16.4
2023-04-12T17:02:48.583Z,16.4
2023-04-12T17:08:41.197Z,16.6
2023-04-12T17:14:33.674Z,16.5
2023-04-12T17:20:26.257Z,16.4
2023-04-12T17:26:20.250Z,16.4
2023-04-12T17:32:12.670Z,16.4
2023-04-12T17:37:51.580Z,16.3
2023-04-12T17:43:44.347Z,16.3
2023-04-12T17:49:37.091Z,16.3
2023-04-12T17:55:28.568Z,16.5
2023-04-12T18:01:20.418Z,16.5
2023-04-12T18:07:14.939Z,16.5
2023-04-12T18:13:06.678Z,16.4
2023-04-12T18:18:59.383Z,16.4
2023-04-12T18:24:53.709Z,16.3
2023-04-12T18:30:45.421Z,16.3
2023-04-12T18:36:37.948Z,16.3
2023-04-12T18:42:30.154Z,16.4
2023-04-12T18:48:22.088Z,16.5
2023-04-12T18:54:00.404Z,16.5
2023-04-12T19:00:13.714Z,16.4
2023-04-12T19:06:08.197Z,16.3
2023-04-12T19:12:02.012Z,16.3
2023-04-12T19:17:54.998Z,16.2
2023-04-12T19:23:47.860Z,16.2
2023-04-12T19:29:44.053Z,16.4
2023-04-12T19:35:40.837Z,16.4
2023-04-12T19:41:36.056Z,16.4
2023-04-12T19:47:29.843Z,16.3
2023-04-12T19:53:23.749Z,16.3
2023-04-12T19:59:16.898Z,16.3
2023-04-12T20:05:10.661Z,16.1
2023-04-12T20:11:03.862Z,16.1
2023-04-12T20:16:40.871Z,16.2
2023-04-12T20:22:34.214Z,16.4
2023-04-12T20:28:26.307Z,16.3
2023-04-12T20:34:18.723Z,16.3
2023-04-12T20:40:10.569Z,16.2
2023-04-12T20:46:02.507Z,16.1
2023-04-12T20:51:56.680Z,16.1
2023-04-12T20:57:48.284Z,16.1
2023-04-12T21:05:22.718Z,16.1
2023-04-12T21:10:58.431Z,16.3
2023-04-12T21:16:50.198Z,16.3
2023-04-12T21:22:41.061Z,16.3
2023-04-12T21:28:32.108Z,16.2
2023-04-12T21:34:24.060Z,16.1
2023-04-12T21:40:15.542Z,16.1
2023-04-12T21:46:07.138Z,16
2023-04-12T21:52:02.468Z,16.1
2023-04-12T21:57:54.346Z,16.3
2023-04-12T22:03:33.509Z,16.3
2023-04-12T22:09:22.735Z,16.2
2023-04-12T22:15:14.110Z,16.2
2023-04-12T22:20:50.101Z,16.1
2023-04-12T22:26:26.888Z,16.1
2023-04-12T22:32:03.763Z,15.9
2023-04-12T22:38:09.166Z,16
2023-04-12T22:44:00.886Z,16.2
2023-04-12T22:49:52.529Z,16.2
2023-04-12T22:55:43.790Z,16.2
2023-04-12T23:01:39.043Z,16.1
2023-04-12T23:07:31.318Z,16.1
2023-04-12T23:13:06.737Z,16
2023-04-12T23:18:58.885Z,15.9
2023-04-12T23:24:50.528Z,15.9
2023-04-12T23:30:27.104Z,16.1
2023-04-12T23:36:03.489Z,16.3
2023-04-12T23:41:54.727Z,16.2
2023-04-12T23:47:45.317Z,16.1
2023-04-12T23:53:37.330Z,16
2023-04-12T23:59:29.168Z,16
